Terminal Aerodrome Forecast
Issued by NWS Corpus Christi, TX

Home | Current Version | Previous Version | Text Only | Print | Product List | Glossary On
Versions: 1 2 3 4 5 6 7 8 9 10 11 12 13 14 15 16 17
000
FTUS44 KCRP 310526
TAFVCT
TAF
KVCT 310526Z 3106/0106 15008KT P6SM SCT035
     FM310800 09004KT 5SM BR SCT022
      TEMPO 3109/3113 3SM BR BKN010
     FM311400 14009KT P6SM SCT022 BKN035 PROB30 3120/3124 TSRA
      BKN025CB
     FM010200 14006KT P6SM SCT020=

USA.gov is the U.S. government's official web portal to all federal, state and local government web resources and services.